Terminal Aerodrome Forecast
Issued by NWS

Home | Current Version | Previous Version | Graphics & Text | Print | Product List | Glossary On
Versions: 1 2 3 4 5 6 7 8 9 10 11 12 13 14 15 16 17 18 19 20 21
000
FTUS45 KGGW 221000 AAA
TAFSDY
TAF AMD
KSDY 221031Z 2211/2306 29014KT 4SM -SN SCT009 OVC015
      TEMPO 2211/2213 2SM -SN BKN009
     FM221300 31019G27KT 5SM -SN BKN013 OVC024
     FM230000 32015KT P6SM OVC021
      AMD LTD TO CLD VIS AND WIND=

USA.gov is the U.S. government's official web portal to all federal, state and local government web resources and services.